Seagoville's Hourly Summary for Thursday, March 16, 2017
Hour Temp
(f)
RH
(%)
Solar Rad.
(MJ/m2)
Rainfall
(in)
Wind
(mph)
3/16/2017 12:00 AM 50 75 0 0 2.88
3/16/2017 1:00 AM 49 81 0 0 1.35
3/16/2017 2:00 AM 48 83 0 0 1.88
3/16/2017 3:00 AM 51 81 0 0 7.36
3/16/2017 4:00 AM 53 81 0 0 11.68
3/16/2017 5:00 AM 54 86 0 0 10.79
3/16/2017 6:00 AM 54 88 0 0 10.33
3/16/2017 7:00 AM 54 89 0.01 0 7.45
3/16/2017 8:00 AM 55 87 0.1 0 6.42
3/16/2017 9:00 AM 55 86 0.2 0 7.61
3/16/2017 10:00 AM 57 80 0.49 0 8.79
3/16/2017 11:00 AM 59 79 0.68 0 10.17
3/16/2017 12:00 PM 61 75 0.74 0 8.64
3/16/2017 1:00 PM 64 70 1.1 0 9.85
3/16/2017 2:00 PM 65 72 0.45 0 8.55
3/16/2017 3:00 PM 67 69 0.47 0 10.03
3/16/2017 4:00 PM 70 64 0.92 0 11.73
3/16/2017 5:00 PM 71 63 0.72 0 12.65
3/16/2017 6:00 PM 71 63 0.37 0 12.23
3/16/2017 7:00 PM 70 65 0.05 0 9.21
3/16/2017 8:00 PM 68 71 0 0 11.57
3/16/2017 9:00 PM 66 75 0 0 9.82
3/16/2017 10:00 PM 65 80 0 0 12.01
3/16/2017 11:00 PM 64 82 0 0 11.83
Data Summary 60 76 6.30 0.00 8.95